sensor_id;sensor_type;location;lat;lon;timestamp;temperature;humidity
79711;DHT22;69465;51.630;6.570;2023-06-19T00:02:03;24.00;37.20
79711;DHT22;69465;51.630;6.570;2023-06-19T00:04:30;24.00;37.20
79711;DHT22;69465;51.630;6.570;2023-06-19T00:06:59;24.00;37.50
79711;DHT22;69465;51.630;6.570;2023-06-19T00:09:25;23.90;37.40
79711;DHT22;69465;51.630;6.570;2023-06-19T00:11:52;23.90;37.70
79711;DHT22;69465;51.630;6.570;2023-06-19T00:14:19;23.90;38.00
79711;DHT22;69465;51.630;6.570;2023-06-19T00:16:46;23.80;37.50
79711;DHT22;69465;51.630;6.570;2023-06-19T00:19:13;23.70;37.80
79711;DHT22;69465;51.630;6.570;2023-06-19T00:21:39;23.70;37.80
79711;DHT22;69465;51.630;6.570;2023-06-19T00:24:06;23.70;37.80
79711;DHT22;69465;51.630;6.570;2023-06-19T00:26:33;23.60;37.70
79711;DHT22;69465;51.630;6.570;2023-06-19T00:29:00;23.60;38.10
79711;DHT22;69465;51.630;6.570;2023-06-19T00:31:26;23.60;39.10
79711;DHT22;69465;51.630;6.570;2023-06-19T00:33:54;23.60;38.60
79711;DHT22;69465;51.630;6.570;2023-06-19T00:36:20;23.60;38.80
79711;DHT22;69465;51.630;6.570;2023-06-19T00:38:47;23.60;39.00
79711;DHT22;69465;51.630;6.570;2023-06-19T00:41:17;23.60;38.80
79711;DHT22;69465;51.630;6.570;2023-06-19T00:43:44;23.50;38.80
79711;DHT22;69465;51.630;6.570;2023-06-19T00:46:11;23.50;38.80
79711;DHT22;69465;51.630;6.570;2023-06-19T00:48:38;23.40;38.80
79711;DHT22;69465;51.630;6.570;2023-06-19T00:51:06;23.40;39.00
79711;DHT22;69465;51.630;6.570;2023-06-19T00:53:32;23.30;39.00
79711;DHT22;69465;51.630;6.570;2023-06-19T00:56:00;23.30;39.30
79711;DHT22;69465;51.630;6.570;2023-06-19T00:58:27;23.30;39.60
79711;DHT22;69465;51.630;6.570;2023-06-19T01:00:53;23.20;39.80
79711;DHT22;69465;51.630;6.570;2023-06-19T01:03:33;23.10;39.80
79711;DHT22;69465;51.630;6.570;2023-06-19T01:06:01;23.10;40.00
79711;DHT22;69465;51.630;6.570;2023-06-19T01:11:17;22.90;40.30
79711;DHT22;69465;51.630;6.570;2023-06-19T01:13:56;22.80;40.50
79711;DHT22;69465;51.630;6.570;2023-06-19T01:16:25;22.80;40.80
79711;DHT22;69465;51.630;6.570;2023-06-19T01:18:53;22.70;41.00
79711;DHT22;69465;51.630;6.570;2023-06-19T01:21:20;22.60;40.90
79711;DHT22;69465;51.630;6.570;2023-06-19T01:23:46;22.60;41.50
79711;DHT22;69465;51.630;6.570;2023-06-19T01:26:15;22.50;41.50
79711;DHT22;69465;51.630;6.570;2023-06-19T01:28:43;22.40;41.60
79711;DHT22;69465;51.630;6.570;2023-06-19T01:34:20;22.30;41.50
79711;DHT22;69465;51.630;6.570;2023-06-19T01:36:48;22.20;42.00
79711;DHT22;69465;51.630;6.570;2023-06-19T01:39:17;22.10;42.50
79711;DHT22;69465;51.630;6.570;2023-06-19T01:41:45;22.10;42.60
79711;DHT22;69465;51.630;6.570;2023-06-19T01:44:12;22.00;43.20
79711;DHT22;69465;51.630;6.570;2023-06-19T01:46:39;21.90;43.40
79711;DHT22;69465;51.630;6.570;2023-06-19T01:49:09;21.90;43.80
79711;DHT22;69465;51.630;6.570;2023-06-19T01:51:36;21.80;44.10
79711;DHT22;69465;51.630;6.570;2023-06-19T01:54:03;21.70;44.00
79711;DHT22;69465;51.630;6.570;2023-06-19T01:56:29;21.60;44.30
79711;DHT22;69465;51.630;6.570;2023-06-19T01:58:56;21.50;44.60
79711;DHT22;69465;51.630;6.570;2023-06-19T02:01:23;21.40;45.00
79711;DHT22;69465;51.630;6.570;2023-06-19T02:03:50;21.30;45.30
79711;DHT22;69465;51.630;6.570;2023-06-19T02:06:17;21.30;44.90
79711;DHT22;69465;51.630;6.570;2023-06-19T02:08:43;21.20;45.40
79711;DHT22;69465;51.630;6.570;2023-06-19T02:11:10;21.20;45.40
79711;DHT22;69465;51.630;6.570;2023-06-19T02:13:37;21.00;45.20
79711;DHT22;69465;51.630;6.570;2023-06-19T02:16:06;21.00;45.80
79711;DHT22;69465;51.630;6.570;2023-06-19T02:18:33;20.90;45.90
79711;DHT22;69465;51.630;6.570;2023-06-19T02:21:00;20.90;45.70
79711;DHT22;69465;51.630;6.570;2023-06-19T02:23:26;20.90;46.30
79711;DHT22;69465;51.630;6.570;2023-06-19T02:25:53;20.80;46.40
79711;DHT22;69465;51.630;6.570;2023-06-19T02:28:20;20.80;46.50
79711;DHT22;69465;51.630;6.570;2023-06-19T02:30:47;20.70;46.40
79711;DHT22;69465;51.630;6.570;2023-06-19T02:33:13;20.70;46.60
79711;DHT22;69465;51.630;6.570;2023-06-19T02:35:40;20.70;47.00
79711;DHT22;69465;51.630;6.570;2023-06-19T02:38:07;20.60;47.50
79711;DHT22;69465;51.630;6.570;2023-06-19T02:40:33;20.60;47.40
79711;DHT22;69465;51.630;6.570;2023-06-19T02:43:00;20.60;47.40
79711;DHT22;69465;51.630;6.570;2023-06-19T02:45:27;20.70;47.20
79711;DHT22;69465;51.630;6.570;2023-06-19T02:47:54;20.70;47.10
79711;DHT22;69465;51.630;6.570;2023-06-19T02:50:21;20.80;47.00
79711;DHT22;69465;51.630;6.570;2023-06-19T02:52:48;20.90;46.90
79711;DHT22;69465;51.630;6.570;2023-06-19T02:55:15;21.00;46.90
79711;DHT22;69465;51.630;6.570;2023-06-19T02:57:41;21.10;46.30
79711;DHT22;69465;51.630;6.570;2023-06-19T03:00:09;21.20;45.90
79711;DHT22;69465;51.630;6.570;2023-06-19T03:02:35;21.30;46.10
79711;DHT22;69465;51.630;6.570;2023-06-19T03:05:02;21.40;46.00
79711;DHT22;69465;51.630;6.570;2023-06-19T03:07:29;21.40;45.60
79711;DHT22;69465;51.630;6.570;2023-06-19T03:09:56;21.50;45.90
79711;DHT22;69465;51.630;6.570;2023-06-19T03:12:23;21.60;45.90
79711;DHT22;69465;51.630;6.570;2023-06-19T03:14:49;21.60;46.20
79711;DHT22;69465;51.630;6.570;2023-06-19T03:17:16;21.70;46.40
79711;DHT22;69465;51.630;6.570;2023-06-19T03:19:42;21.70;46.40
79711;DHT22;69465;51.630;6.570;2023-06-19T03:22:09;21.70;46.40
79711;DHT22;69465;51.630;6.570;2023-06-19T03:24:36;21.70;46.30
79711;DHT22;69465;51.630;6.570;2023-06-19T03:27:03;21.70;46.50
79711;DHT22;69465;51.630;6.570;2023-06-19T03:29:29;21.70;46.80
79711;DHT22;69465;51.630;6.570;2023-06-19T03:31:56;21.70;46.80
79711;DHT22;69465;51.630;6.570;2023-06-19T03:34:23;21.60;46.90
79711;DHT22;69465;51.630;6.570;2023-06-19T03:36:49;21.60;47.10
79711;DHT22;69465;51.630;6.570;2023-06-19T03:39:16;21.50;47.40
79711;DHT22;69465;51.630;6.570;2023-06-19T03:41:43;21.50;47.60
79711;DHT22;69465;51.630;6.570;2023-06-19T03:44:09;21.50;48.30
79711;DHT22;69465;51.630;6.570;2023-06-19T03:46:36;21.40;48.10
79711;DHT22;69465;51.630;6.570;2023-06-19T03:49:03;21.30;48.40
79711;DHT22;69465;51.630;6.570;2023-06-19T03:51:30;21.30;48.50
79711;DHT22;69465;51.630;6.570;2023-06-19T03:53:56;21.20;48.90
79711;DHT22;69465;51.630;6.570;2023-06-19T03:56:23;21.10;49.00
79711;DHT22;69465;51.630;6.570;2023-06-19T03:58:50;21.10;49.30
79711;DHT22;69465;51.630;6.570;2023-06-19T04:01:17;21.00;49.70
79711;DHT22;69465;51.630;6.570;2023-06-19T04:03:44;20.90;50.00
79711;DHT22;69465;51.630;6.570;2023-06-19T04:06:11;20.90;50.00
79711;DHT22;69465;51.630;6.570;2023-06-19T04:08:37;20.90;50.00
79711;DHT22;69465;51.630;6.570;2023-06-19T04:11:04;20.90;50.40
79711;DHT22;69465;51.630;6.570;2023-06-19T04:13:30;20.80;50.50
79711;DHT22;69465;51.630;6.570;2023-06-19T04:15:57;20.80;50.70
79711;DHT22;69465;51.630;6.570;2023-06-19T04:18:24;20.80;50.70
79711;DHT22;69465;51.630;6.570;2023-06-19T04:20:50;20.80;51.00
79711;DHT22;69465;51.630;6.570;2023-06-19T04:23:17;20.70;51.00
79711;DHT22;69465;51.630;6.570;2023-06-19T04:25:44;20.70;51.10
79711;DHT22;69465;51.630;6.570;2023-06-19T04:28:10;20.80;51.50
79711;DHT22;69465;51.630;6.570;2023-06-19T04:30:37;20.80;51.40
79711;DHT22;69465;51.630;6.570;2023-06-19T04:33:03;20.80;51.60
79711;DHT22;69465;51.630;6.570;2023-06-19T04:35:30;20.90;51.50
79711;DHT22;69465;51.630;6.570;2023-06-19T04:37:57;20.90;51.50
79711;DHT22;69465;51.630;6.570;2023-06-19T04:40:23;21.00;51.40
79711;DHT22;69465;51.630;6.570;2023-06-19T04:42:50;21.00;51.50
79711;DHT22;69465;51.630;6.570;2023-06-19T04:45:17;21.00;51.10
79711;DHT22;69465;51.630;6.570;2023-06-19T04:47:43;21.10;51.10
79711;DHT22;69465;51.630;6.570;2023-06-19T04:50:20;21.10;51.60
79711;DHT22;69465;51.630;6.570;2023-06-19T04:52:48;21.20;51.70
79711;DHT22;69465;51.630;6.570;2023-06-19T04:55:14;21.20;51.00
79711;DHT22;69465;51.630;6.570;2023-06-19T04:57:41;21.30;51.00
79711;DHT22;69465;51.630;6.570;2023-06-19T05:00:08;21.40;50.50
79711;DHT22;69465;51.630;6.570;2023-06-19T05:02:35;21.50;50.60
79711;DHT22;69465;51.630;6.570;2023-06-19T05:05:02;21.60;50.60
79711;DHT22;69465;51.630;6.570;2023-06-19T05:07:32;21.70;50.70
79711;DHT22;69465;51.630;6.570;2023-06-19T05:09:59;21.80;50.80
79711;DHT22;69465;51.630;6.570;2023-06-19T05:12:25;21.90;50.40
79711;DHT22;69465;51.630;6.570;2023-06-19T05:14:52;22.00;50.30
79711;DHT22;69465;51.630;6.570;2023-06-19T05:17:19;22.10;49.50
79711;DHT22;69465;51.630;6.570;2023-06-19T05:19:46;22.10;49.20
79711;DHT22;69465;51.630;6.570;2023-06-19T05:22:13;22.10;49.20
79711;DHT22;69465;51.630;6.570;2023-06-19T05:24:40;22.20;49.50
79711;DHT22;69465;51.630;6.570;2023-06-19T05:27:07;22.20;49.40
79711;DHT22;69465;51.630;6.570;2023-06-19T05:29:33;22.10;49.20
79711;DHT22;69465;51.630;6.570;2023-06-19T05:32:01;22.10;49.70
79711;DHT22;69465;51.630;6.570;2023-06-19T05:34:27;22.00;50.40
79711;DHT22;69465;51.630;6.570;2023-06-19T05:36:54;21.90;50.00
79711;DHT22;69465;51.630;6.570;2023-06-19T05:39:21;22.00;50.80
79711;DHT22;69465;51.630;6.570;2023-06-19T05:41:47;22.00;51.00
79711;DHT22;69465;51.630;6.570;2023-06-19T05:44:15;22.00;50.50
79711;DHT22;69465;51.630;6.570;2023-06-19T05:46:41;22.10;50.90
79711;DHT22;69465;51.630;6.570;2023-06-19T05:49:08;22.10;50.30
79711;DHT22;69465;51.630;6.570;2023-06-19T05:51:35;22.20;51.10
79711;DHT22;69465;51.630;6.570;2023-06-19T05:54:02;22.30;50.70
79711;DHT22;69465;51.630;6.570;2023-06-19T05:56:32;22.30;50.50
79711;DHT22;69465;51.630;6.570;2023-06-19T05:59:02;22.40;50.40
79711;DHT22;69465;51.630;6.570;2023-06-19T06:01:29;22.50;50.20
79711;DHT22;69465;51.630;6.570;2023-06-19T06:03:56;22.60;49.70
79711;DHT22;69465;51.630;6.570;2023-06-19T06:06:23;22.80;49.40
79711;DHT22;69465;51.630;6.570;2023-06-19T06:08:50;23.10;48.80
79711;DHT22;69465;51.630;6.570;2023-06-19T06:11:17;23.30;48.10
79711;DHT22;69465;51.630;6.570;2023-06-19T06:13:44;23.30;48.00
79711;DHT22;69465;51.630;6.570;2023-06-19T06:16:11;23.40;47.70
79711;DHT22;69465;51.630;6.570;2023-06-19T06:18:38;23.40;47.70
79711;DHT22;69465;51.630;6.570;2023-06-19T06:21:04;23.40;47.40
79711;DHT22;69465;51.630;6.570;2023-06-19T06:23:31;23.40;47.70
79711;DHT22;69465;51.630;6.570;2023-06-19T06:25:57;23.40;47.30
79711;DHT22;69465;51.630;6.570;2023-06-19T06:28:24;23.50;48.00
79711;DHT22;69465;51.630;6.570;2023-06-19T06:30:51;23.70;47.50
79711;DHT22;69465;51.630;6.570;2023-06-19T06:33:18;23.90;47.30
79711;DHT22;69465;51.630;6.570;2023-06-19T06:35:44;24.10;45.80
79711;DHT22;69465;51.630;6.570;2023-06-19T06:38:11;24.20;46.50
79711;DHT22;69465;51.630;6.570;2023-06-19T06:40:38;24.30;45.90
79711;DHT22;69465;51.630;6.570;2023-06-19T06:43:04;24.30;45.10
79711;DHT22;69465;51.630;6.570;2023-06-19T06:45:31;24.30;45.00
79711;DHT22;69465;51.630;6.570;2023-06-19T06:47:58;24.20;45.70
79711;DHT22;69465;51.630;6.570;2023-06-19T06:50:25;24.30;45.90
79711;DHT22;69465;51.630;6.570;2023-06-19T06:52:52;24.50;45.40
79711;DHT22;69465;51.630;6.570;2023-06-19T06:55:18;24.60;45.70
79711;DHT22;69465;51.630;6.570;2023-06-19T06:57:45;24.80;44.50
79711;DHT22;69465;51.630;6.570;2023-06-19T07:00:12;24.90;44.40
79711;DHT22;69465;51.630;6.570;2023-06-19T07:02:39;24.90;43.00
79711;DHT22;69465;51.630;6.570;2023-06-19T07:05:10;24.80;43.70
79711;DHT22;69465;51.630;6.570;2023-06-19T07:07:37;24.60;43.50
79711;DHT22;69465;51.630;6.570;2023-06-19T07:10:05;24.70;44.30
79711;DHT22;69465;51.630;6.570;2023-06-19T07:12:32;24.80;44.20
79711;DHT22;69465;51.630;6.570;2023-06-19T07:14:59;24.70;43.60
79711;DHT22;69465;51.630;6.570;2023-06-19T07:17:26;24.70;44.50
79711;DHT22;69465;51.630;6.570;2023-06-19T07:19:53;24.80;44.40
79711;DHT22;69465;51.630;6.570;2023-06-19T07:22:19;24.80;44.30
79711;DHT22;69465;51.630;6.570;2023-06-19T07:24:46;24.80;43.80
79711;DHT22;69465;51.630;6.570;2023-06-19T07:27:13;24.80;44.20
79711;DHT22;69465;51.630;6.570;2023-06-19T07:29:40;24.80;44.70
79711;DHT22;69465;51.630;6.570;2023-06-19T07:32:07;24.70;45.10
79711;DHT22;69465;51.630;6.570;2023-06-19T07:34:34;24.80;45.10
79711;DHT22;69465;51.630;6.570;2023-06-19T07:37:00;25.00;44.50
79711;DHT22;69465;51.630;6.570;2023-06-19T07:39:27;25.20;44.00
79711;DHT22;69465;51.630;6.570;2023-06-19T07:41:54;25.30;43.90
79711;DHT22;69465;51.630;6.570;2023-06-19T07:44:21;25.70;43.90
79711;DHT22;69465;51.630;6.570;2023-06-19T07:46:47;26.50;42.10
79711;DHT22;69465;51.630;6.570;2023-06-19T07:49:14;26.90;40.30
79711;DHT22;69465;51.630;6.570;2023-06-19T07:51:41;27.50;39.70
79711;DHT22;69465;51.630;6.570;2023-06-19T07:54:08;27.60;39.30
79711;DHT22;69465;51.630;6.570;2023-06-19T07:56:34;27.70;38.50
79711;DHT22;69465;51.630;6.570;2023-06-19T07:59:01;27.90;39.50
79711;DHT22;69465;51.630;6.570;2023-06-19T08:01:31;28.00;37.70
79711;DHT22;69465;51.630;6.570;2023-06-19T08:03:57;28.00;38.00
79711;DHT22;69465;51.630;6.570;2023-06-19T08:06:24;28.20;38.20
79711;DHT22;69465;51.630;6.570;2023-06-19T08:08:51;28.20;37.90
79711;DHT22;69465;51.630;6.570;2023-06-19T08:11:18;28.20;37.50
79711;DHT22;69465;51.630;6.570;2023-06-19T08:13:44;28.30;37.00
79711;DHT22;69465;51.630;6.570;2023-06-19T08:16:11;28.30;37.20
79711;DHT22;69465;51.630;6.570;2023-06-19T08:18:38;28.20;36.80
79711;DHT22;69465;51.630;6.570;2023-06-19T08:21:04;28.40;36.10
79711;DHT22;69465;51.630;6.570;2023-06-19T08:23:31;28.60;35.60
79711;DHT22;69465;51.630;6.570;2023-06-19T08:25:58;28.80;35.10
79711;DHT22;69465;51.630;6.570;2023-06-19T08:28:24;29.10;34.80
79711;DHT22;69465;51.630;6.570;2023-06-19T08:30:51;29.10;33.70
79711;DHT22;69465;51.630;6.570;2023-06-19T08:33:18;29.00;33.70
79711;DHT22;69465;51.630;6.570;2023-06-19T08:35:44;28.80;34.70
79711;DHT22;69465;51.630;6.570;2023-06-19T08:38:11;29.20;33.80
79711;DHT22;69465;51.630;6.570;2023-06-19T08:40:38;30.00;32.30
79711;DHT22;69465;51.630;6.570;2023-06-19T08:43:04;31.10;31.10
79711;DHT22;69465;51.630;6.570;2023-06-19T08:45:31;32.10;28.50
79711;DHT22;69465;51.630;6.570;2023-06-19T08:47:59;32.80;27.40
79711;DHT22;69465;51.630;6.570;2023-06-19T08:50:26;33.00;27.00
79711;DHT22;69465;51.630;6.570;2023-06-19T08:52:54;32.80;27.20
79711;DHT22;69465;51.630;6.570;2023-06-19T08:55:22;32.30;27.30
79711;DHT22;69465;51.630;6.570;2023-06-19T08:57:49;31.90;28.60
79711;DHT22;69465;51.630;6.570;2023-06-19T09:00:27;31.40;28.50
79711;DHT22;69465;51.630;6.570;2023-06-19T09:03:02;30.80;29.20
79711;DHT22;69465;51.630;6.570;2023-06-19T09:05:41;30.40;30.20
79711;DHT22;69465;51.630;6.570;2023-06-19T09:08:13;30.30;29.50
79711;DHT22;69465;51.630;6.570;2023-06-19T09:10:39;29.80;30.50
79711;DHT22;69465;51.630;6.570;2023-06-19T09:13:06;29.20;31.50
79711;DHT22;69465;51.630;6.570;2023-06-19T09:15:37;28.60;33.00
79711;DHT22;69465;51.630;6.570;2023-06-19T09:18:08;28.30;34.40
79711;DHT22;69465;51.630;6.570;2023-06-19T09:20:40;28.40;34.20
79711;DHT22;69465;51.630;6.570;2023-06-19T09:23:07;28.70;34.10
79711;DHT22;69465;51.630;6.570;2023-06-19T09:25:47;29.50;32.60
79711;DHT22;69465;51.630;6.570;2023-06-19T09:28:24;30.40;29.60
79711;DHT22;69465;51.630;6.570;2023-06-19T09:33:24;31.30;28.30
79711;DHT22;69465;51.630;6.570;2023-06-19T09:35:54;31.70;27.30
79711;DHT22;69465;51.630;6.570;2023-06-19T09:38:25;32.10;27.50
79711;DHT22;69465;51.630;6.570;2023-06-19T09:40:53;31.70;27.50
79711;DHT22;69465;51.630;6.570;2023-06-19T09:43:25;32.00;27.70
79711;DHT22;69465;51.630;6.570;2023-06-19T09:45:55;32.80;26.60
79711;DHT22;69465;51.630;6.570;2023-06-19T09:48:31;33.20;25.90
79711;DHT22;69465;51.630;6.570;2023-06-19T09:51:18;33.60;25.50
79711;DHT22;69465;51.630;6.570;2023-06-19T09:53:47;34.20;25.20
79711;DHT22;69465;51.630;6.570;2023-06-19T09:56:14;34.20;25.10
79711;DHT22;69465;51.630;6.570;2023-06-19T09:58:45;33.90;24.30
79711;DHT22;69465;51.630;6.570;2023-06-19T10:01:13;33.30;24.60
79711;DHT22;69465;51.630;6.570;2023-06-19T10:03:40;33.00;25.80
79711;DHT22;69465;51.630;6.570;2023-06-19T10:06:13;32.30;25.30
79711;DHT22;69465;51.630;6.570;2023-06-19T10:08:41;31.80;25.50
79711;DHT22;69465;51.630;6.570;2023-06-19T10:11:09;31.40;26.30
79711;DHT22;69465;51.630;6.570;2023-06-19T10:13:37;31.00;27.20
79711;DHT22;69465;51.630;6.570;2023-06-19T10:16:05;31.00;26.20
79711;DHT22;69465;51.630;6.570;2023-06-19T10:18:32;31.40;27.20
79711;DHT22;69465;51.630;6.570;2023-06-19T10:20:59;31.60;25.50
79711;DHT22;69465;51.630;6.570;2023-06-19T10:23:26;31.60;26.50
79711;DHT22;69465;51.630;6.570;2023-06-19T10:25:59;32.00;26.70
79711;DHT22;69465;51.630;6.570;2023-06-19T10:28:31;32.60;25.20
79711;DHT22;69465;51.630;6.570;2023-06-19T10:31:05;33.50;23.80
79711;DHT22;69465;51.630;6.570;2023-06-19T10:33:33;33.30;23.40
79711;DHT22;69465;51.630;6.570;2023-06-19T10:36:13;33.10;23.30
79711;DHT22;69465;51.630;6.570;2023-06-19T10:38:40;33.10;23.50
79711;DHT22;69465;51.630;6.570;2023-06-19T10:41:15;33.30;23.40
79711;DHT22;69465;51.630;6.570;2023-06-19T10:43:56;33.10;24.10
79711;DHT22;69465;51.630;6.570;2023-06-19T10:46:24;32.70;24.70
79711;DHT22;69465;51.630;6.570;2023-06-19T10:48:51;32.70;25.00
79711;DHT22;69465;51.630;6.570;2023-06-19T10:51:19;33.30;25.00
79711;DHT22;69465;51.630;6.570;2023-06-19T10:53:46;33.60;23.20
79711;DHT22;69465;51.630;6.570;2023-06-19T10:56:12;33.90;23.80
79711;DHT22;69465;51.630;6.570;2023-06-19T10:58:39;34.20;23.50
79711;DHT22;69465;51.630;6.570;2023-06-19T11:01:06;34.60;22.80
79711;DHT22;69465;51.630;6.570;2023-06-19T11:03:32;34.80;21.90
79711;DHT22;69465;51.630;6.570;2023-06-19T11:05:59;34.90;22.00
79711;DHT22;69465;51.630;6.570;2023-06-19T11:08:26;34.90;21.10
79711;DHT22;69465;51.630;6.570;2023-06-19T11:10:53;34.50;21.80
79711;DHT22;69465;51.630;6.570;2023-06-19T11:13:19;34.00;22.30
79711;DHT22;69465;51.630;6.570;2023-06-19T11:15:50;33.80;23.00
79711;DHT22;69465;51.630;6.570;2023-06-19T11:18:18;33.30;23.20
79711;DHT22;69465;51.630;6.570;2023-06-19T11:20:52;33.10;25.10
79711;DHT22;69465;51.630;6.570;2023-06-19T11:23:26;32.70;23.00
79711;DHT22;69465;51.630;6.570;2023-06-19T11:25:53;32.40;24.00
79711;DHT22;69465;51.630;6.570;2023-06-19T11:28:20;32.50;24.60
79711;DHT22;69465;51.630;6.570;2023-06-19T11:30:46;32.50;23.30
79711;DHT22;69465;51.630;6.570;2023-06-19T11:33:20;32.60;24.60
79711;DHT22;69465;51.630;6.570;2023-06-19T11:35:49;32.50;24.30
79711;DHT22;69465;51.630;6.570;2023-06-19T11:38:22;32.20;24.50
79711;DHT22;69465;51.630;6.570;2023-06-19T11:40:49;32.00;24.70
79711;DHT22;69465;51.630;6.570;2023-06-19T11:43:29;31.70;24.60
79711;DHT22;69465;51.630;6.570;2023-06-19T11:46:08;31.60;25.50
79711;DHT22;69465;51.630;6.570;2023-06-19T11:48:39;31.50;24.80
79711;DHT22;69465;51.630;6.570;2023-06-19T11:51:05;31.30;25.70
79711;DHT22;69465;51.630;6.570;2023-06-19T11:53:32;31.20;24.50
79711;DHT22;69465;51.630;6.570;2023-06-19T11:55:59;31.20;24.20
79711;DHT22;69465;51.630;6.570;2023-06-19T11:58:26;31.10;25.70
79711;DHT22;69465;51.630;6.570;2023-06-19T12:00:53;31.20;25.40
79711;DHT22;69465;51.630;6.570;2023-06-19T12:03:20;31.00;24.10
79711;DHT22;69465;51.630;6.570;2023-06-19T12:05:47;31.10;24.20
79711;DHT22;69465;51.630;6.570;2023-06-19T12:08:14;31.10;24.90
79711;DHT22;69465;51.630;6.570;2023-06-19T12:10:40;31.10;24.80
79711;DHT22;69465;51.630;6.570;2023-06-19T12:13:07;31.10;25.40
79711;DHT22;69465;51.630;6.570;2023-06-19T12:15:34;31.20;24.60
79711;DHT22;69465;51.630;6.570;2023-06-19T12:18:03;31.30;26.10
79711;DHT22;69465;51.630;6.570;2023-06-19T12:20:31;31.50;24.40
79711;DHT22;69465;51.630;6.570;2023-06-19T12:22:57;31.50;24.40
79711;DHT22;69465;51.630;6.570;2023-06-19T12:25:24;31.80;24.50
79711;DHT22;69465;51.630;6.570;2023-06-19T12:27:51;31.90;24.10
79711;DHT22;69465;51.630;6.570;2023-06-19T12:30:21;32.00;24.10
79711;DHT22;69465;51.630;6.570;2023-06-19T12:32:48;31.90;23.90
79711;DHT22;69465;51.630;6.570;2023-06-19T12:35:15;31.80;23.50
79711;DHT22;69465;51.630;6.570;2023-06-19T12:37:42;31.80;23.50
79711;DHT22;69465;51.630;6.570;2023-06-19T12:40:09;31.70;23.40
79711;DHT22;69465;51.630;6.570;2023-06-19T12:42:36;31.50;22.80
79711;DHT22;69465;51.630;6.570;2023-06-19T12:45:03;31.40;23.00
79711;DHT22;69465;51.630;6.570;2023-06-19T12:47:30;31.40;23.20
79711;DHT22;69465;51.630;6.570;2023-06-19T12:49:57;31.40;23.00
79711;DHT22;69465;51.630;6.570;2023-06-19T12:52:24;31.40;24.30
79711;DHT22;69465;51.630;6.570;2023-06-19T12:54:50;31.40;23.00
79711;DHT22;69465;51.630;6.570;2023-06-19T12:57:17;31.50;22.20
79711;DHT22;69465;51.630;6.570;2023-06-19T12:59:43;31.40;21.90
79711;DHT22;69465;51.630;6.570;2023-06-19T13:02:10;31.40;21.50
79711;DHT22;69465;51.630;6.570;2023-06-19T13:04:40;31.40;21.80
79711;DHT22;69465;51.630;6.570;2023-06-19T13:07:08;31.30;22.70
79711;DHT22;69465;51.630;6.570;2023-06-19T13:09:34;31.10;23.40
79711;DHT22;69465;51.630;6.570;2023-06-19T13:12:02;31.10;23.30
79711;DHT22;69465;51.630;6.570;2023-06-19T13:14:28;31.00;24.60
79711;DHT22;69465;51.630;6.570;2023-06-19T13:16:55;31.00;23.40
79711;DHT22;69465;51.630;6.570;2023-06-19T13:19:22;31.00;24.10
79711;DHT22;69465;51.630;6.570;2023-06-19T13:21:49;31.00;23.90
79711;DHT22;69465;51.630;6.570;2023-06-19T13:24:15;30.90;22.20
79711;DHT22;69465;51.630;6.570;2023-06-19T13:26:43;30.80;22.80
79711;DHT22;69465;51.630;6.570;2023-06-19T13:29:11;30.80;22.80
79711;DHT22;69465;51.630;6.570;2023-06-19T13:31:38;30.80;23.20
79711;DHT22;69465;51.630;6.570;2023-06-19T13:34:05;30.70;22.90
79711;DHT22;69465;51.630;6.570;2023-06-19T13:36:31;30.70;23.20
79711;DHT22;69465;51.630;6.570;2023-06-19T13:38:58;30.80;22.40
79711;DHT22;69465;51.630;6.570;2023-06-19T13:41:24;30.80;22.00
79711;DHT22;69465;51.630;6.570;2023-06-19T13:43:52;30.80;22.40
79711;DHT22;69465;51.630;6.570;2023-06-19T13:46:18;30.70;22.60
79711;DHT22;69465;51.630;6.570;2023-06-19T13:48:45;30.70;21.60
79711;DHT22;69465;51.630;6.570;2023-06-19T13:51:12;30.70;21.40
79711;DHT22;69465;51.630;6.570;2023-06-19T13:53:39;30.70;22.20
79711;DHT22;69465;51.630;6.570;2023-06-19T13:56:05;30.60;22.00
79711;DHT22;69465;51.630;6.570;2023-06-19T13:58:32;30.60;20.70
79711;DHT22;69465;51.630;6.570;2023-06-19T14:00:59;30.60;22.50
79711;DHT22;69465;51.630;6.570;2023-06-19T14:03:26;30.70;21.90
79711;DHT22;69465;51.630;6.570;2023-06-19T14:05:53;30.60;22.10
79711;DHT22;69465;51.630;6.570;2023-06-19T14:08:20;30.70;22.00
79711;DHT22;69465;51.630;6.570;2023-06-19T14:10:46;30.70;22.20
79711;DHT22;69465;51.630;6.570;2023-06-19T14:13:13;30.70;22.50
79711;DHT22;69465;51.630;6.570;2023-06-19T14:15:40;30.60;22.50
79711;DHT22;69465;51.630;6.570;2023-06-19T14:18:07;30.60;22.20
79711;DHT22;69465;51.630;6.570;2023-06-19T14:20:34;30.60;23.00
79711;DHT22;69465;51.630;6.570;2023-06-19T14:23:01;30.60;22.70
79711;DHT22;69465;51.630;6.570;2023-06-19T14:25:27;30.60;22.40
79711;DHT22;69465;51.630;6.570;2023-06-19T14:27:54;30.60;22.50
79711;DHT22;69465;51.630;6.570;2023-06-19T14:30:21;30.60;21.30
79711;DHT22;69465;51.630;6.570;2023-06-19T14:32:48;30.70;22.80
79711;DHT22;69465;51.630;6.570;2023-06-19T14:35:15;30.70;21.50
79711;DHT22;69465;51.630;6.570;2023-06-19T14:37:42;30.70;21.60
79711;DHT22;69465;51.630;6.570;2023-06-19T14:40:09;30.70;22.50
79711;DHT22;69465;51.630;6.570;2023-06-19T14:42:35;30.70;20.50
79711;DHT22;69465;51.630;6.570;2023-06-19T14:45:02;30.70;22.10
79711;DHT22;69465;51.630;6.570;2023-06-19T14:47:29;30.70;22.80
79711;DHT22;69465;51.630;6.570;2023-06-19T14:49:56;30.70;21.70
79711;DHT22;69465;51.630;6.570;2023-06-19T14:52:23;30.70;22.10
79711;DHT22;69465;51.630;6.570;2023-06-19T14:54:49;30.70;21.70
79711;DHT22;69465;51.630;6.570;2023-06-19T14:57:16;30.60;21.00
79711;DHT22;69465;51.630;6.570;2023-06-19T14:59:42;30.70;21.80
79711;DHT22;69465;51.630;6.570;2023-06-19T15:02:09;30.70;20.20
79711;DHT22;69465;51.630;6.570;2023-06-19T15:04:36;30.70;22.00
79711;DHT22;69465;51.630;6.570;2023-06-19T15:07:03;30.70;22.30
79711;DHT22;69465;51.630;6.570;2023-06-19T15:09:30;30.70;21.60
79711;DHT22;69465;51.630;6.570;2023-06-19T15:11:57;30.60;21.90
79711;DHT22;69465;51.630;6.570;2023-06-19T15:14:24;30.50;22.20
79711;DHT22;69465;51.630;6.570;2023-06-19T15:16:51;30.50;22.40
79711;DHT22;69465;51.630;6.570;2023-06-19T15:19:17;30.50;23.30
79711;DHT22;69465;51.630;6.570;2023-06-19T15:21:44;30.40;22.80
79711;DHT22;69465;51.630;6.570;2023-06-19T15:24:11;30.40;23.40
79711;DHT22;69465;51.630;6.570;2023-06-19T15:26:38;30.40;22.80
79711;DHT22;69465;51.630;6.570;2023-06-19T15:29:05;30.40;22.40
79711;DHT22;69465;51.630;6.570;2023-06-19T15:31:32;30.40;23.40
79711;DHT22;69465;51.630;6.570;2023-06-19T15:33:59;30.40;22.60
79711;DHT22;69465;51.630;6.570;2023-06-19T15:36:25;30.50;22.80
79711;DHT22;69465;51.630;6.570;2023-06-19T15:38:52;30.50;23.20
79711;DHT22;69465;51.630;6.570;2023-06-19T15:41:18;30.50;22.10